createdAt,value
2023-01-10T00:03:55.742Z,20.47
2023-01-10T00:08:52.949Z,20.41
2023-01-10T00:13:54.158Z,20.35
2023-01-10T00:18:52.374Z,20.24
2023-01-10T00:23:52.596Z,20.06
2023-01-10T00:28:51.775Z,19.78
2023-01-10T00:33:49.975Z,19.78
2023-01-10T00:38:51.185Z,19.61
2023-01-10T00:43:48.446Z,19.66
2023-01-10T00:48:48.667Z,19.43
2023-01-10T00:53:47.823Z,19.23
2023-01-10T00:58:47.995Z,19.16
2023-01-10T01:03:45.163Z,19.13
2023-01-10T01:08:43.348Z,18.90
2023-01-10T01:13:44.570Z,18.75
2023-01-10T01:18:44.755Z,18.52
2023-01-10T01:23:41.938Z,18.67
2023-01-10T01:28:43.145Z,18.37
2023-01-10T01:33:41.324Z,18.30
2023-01-10T01:38:40.526Z,17.58
2023-01-10T01:43:38.682Z,17.96
2023-01-10T01:48:37.907Z,18.48
2023-01-10T01:53:38.062Z,18.33
2023-01-10T01:58:36.256Z,18.44
2023-01-10T02:03:36.459Z,18.55
2023-01-10T02:08:34.642Z,18.50
2023-01-10T02:13:34.840Z,18.66
2023-01-10T02:18:33.016Z,18.55
2023-01-10T02:23:33.247Z,18.41
2023-01-10T02:28:32.412Z,18.27
2023-01-10T02:33:31.585Z,18.32
2023-01-10T02:38:29.775Z,18.20
2023-01-10T02:43:28.968Z,18.26
2023-01-10T02:48:30.147Z,18.12
2023-01-10T02:53:30.348Z,18.26
2023-01-10T02:58:27.485Z,18.32
2023-01-10T03:03:26.647Z,18.18
2023-01-10T03:08:27.524Z,18.21
2023-01-10T03:13:25.106Z,18.17
2023-01-10T03:18:23.298Z,17.96
2023-01-10T03:23:22.547Z,17.71
2023-01-10T03:28:21.762Z,17.93
2023-01-10T03:33:21.957Z,18.20
2023-01-10T03:38:20.146Z,18.35
2023-01-10T03:43:19.333Z,18.39
2023-01-10T03:48:19.551Z,18.66
2023-01-10T03:53:17.725Z,19.23
2023-01-10T03:58:16.879Z,18.99
2023-01-10T04:03:16.157Z,18.66
2023-01-10T04:08:16.328Z,18.57
2023-01-10T04:13:14.483Z,18.47
2023-01-10T04:18:13.671Z,18.12
2023-01-10T04:23:12.837Z,18.11
2023-01-10T04:28:12.010Z,17.56
2023-01-10T04:33:13.182Z,18.02
2023-01-10T04:38:09.354Z,17.63
2023-01-10T04:43:09.538Z,17.79
2023-01-10T04:48:10.716Z,17.86
2023-01-10T04:53:07.869Z,17.59
2023-01-10T04:58:07.072Z,18.35
2023-01-10T05:03:07.348Z,18.45
2023-01-10T05:08:06.596Z,18.75
2023-01-10T05:13:04.745Z,18.73
2023-01-10T05:18:04.939Z,18.73
2023-01-10T05:23:04.123Z,18.41
2023-01-10T05:28:03.316Z,18.98
2023-01-10T05:33:01.509Z,18.47
2023-01-10T05:38:01.753Z,18.60
2023-01-10T05:42:59.921Z,18.26
2023-01-10T05:47:59.145Z,18.32
2023-01-10T05:52:58.323Z,18.27
2023-01-10T05:57:58.551Z,18.20
2023-01-10T06:02:56.814Z,18.25
2023-01-10T06:07:57.002Z,18.39
2023-01-10T06:12:55.202Z,18.14
2023-01-10T06:17:55.361Z,18.12
2023-01-10T06:22:53.534Z,17.74
2023-01-10T06:27:53.692Z,17.56
2023-01-10T06:32:51.851Z,18.98
2023-01-10T06:37:51.059Z,19.44
2023-01-10T06:42:50.216Z,19.21
2023-01-10T06:47:49.422Z,19.06
2023-01-10T06:52:49.665Z,18.98
2023-01-10T06:57:47.845Z,18.91
2023-01-10T07:02:47.049Z,18.73
2023-01-10T07:07:48.251Z,18.75
2023-01-10T07:12:45.436Z,18.62
2023-01-10T07:17:45.621Z,18.23
2023-01-10T07:22:43.796Z,18.70
2023-01-10T07:27:43.981Z,18.20
2023-01-10T07:32:44.179Z,17.72
2023-01-10T07:37:42.357Z,17.54
2023-01-10T07:42:40.586Z,17.31
2023-01-10T07:47:40.809Z,17.03
2023-01-10T07:52:39.991Z,16.42
2023-01-10T07:57:37.183Z,16.83
2023-01-10T08:02:37.515Z,17.43
2023-01-10T08:07:37.552Z,18.44
2023-01-10T08:12:35.744Z,18.78
2023-01-10T08:17:36.952Z,19.43
2023-01-10T08:22:34.170Z,19.36
2023-01-10T08:27:33.381Z,19.41
2023-01-10T08:32:32.626Z,18.73
2023-01-10T08:37:31.799Z,18.47
2023-01-10T08:42:31.000Z,18.18
2023-01-10T08:47:31.183Z,17.77
2023-01-10T08:52:29.363Z,17.72
2023-01-10T08:57:28.500Z,17.79
2023-01-10T09:02:27.698Z,17.72
2023-01-10T09:07:27.882Z,17.46
2023-01-10T09:12:26.104Z,17.08
2023-01-10T09:17:26.296Z,16.86
2023-01-10T09:22:25.501Z,17.16
2023-01-10T09:27:23.721Z,17.31
2023-01-10T09:32:22.938Z,17.46
2023-01-10T09:37:23.121Z,17.48
2023-01-10T09:42:21.298Z,17.97
2023-01-10T09:47:23.132Z,18.90
2023-01-10T09:52:20.781Z,20.20
2023-01-10T09:57:18.972Z,20.39
2023-01-10T10:02:18.158Z,20.52
2023-01-10T10:07:19.363Z,20.74
2023-01-10T10:12:15.538Z,20.94
2023-01-10T10:17:17.782Z,21.01
2023-01-10T10:22:14.962Z,21.31
2023-01-10T10:27:14.175Z,22.27
2023-01-10T10:32:13.381Z,22.05
2023-01-10T10:37:13.555Z,22.52
2023-01-10T10:42:11.745Z,22.61
2023-01-10T10:47:10.923Z,24.31
2023-01-10T10:52:10.108Z,24.22
2023-01-10T10:57:09.283Z,24.15
2023-01-10T11:02:09.554Z,24.64
2023-01-10T11:07:08.750Z,24.45
2023-01-10T11:12:08.909Z,25.17
2023-01-10T11:17:07.051Z,26.28
2023-01-10T11:22:05.211Z,24.32
2023-01-10T11:27:04.494Z,23.00
2023-01-10T11:32:04.777Z,21.90
2023-01-10T11:37:05.978Z,21.72
2023-01-10T11:42:02.145Z,23.43
2023-01-10T11:47:02.349Z,22.07
2023-01-10T11:52:01.543Z,21.94
2023-01-10T11:56:59.719Z,22.09
2023-01-10T12:01:59.940Z,23.38
2023-01-10T12:06:59.144Z,26.15
2023-01-10T12:11:57.387Z,24.78
2023-01-10T12:16:55.712Z,23.63
2023-01-10T12:21:55.945Z,23.31
2023-01-10T12:26:55.274Z,23.46
2023-01-10T12:31:55.493Z,23.54
2023-01-10T12:36:53.865Z,23.76
2023-01-10T12:41:52.947Z,23.13
2023-01-10T12:47:06.647Z,22.82
2023-01-10T12:51:52.319Z,23.76
2023-01-10T12:56:50.501Z,22.85
2023-01-10T13:01:50.872Z,22.37
2023-01-10T13:06:49.086Z,22.80
2023-01-10T13:11:49.317Z,22.62
2023-01-10T13:16:48.517Z,24.09
2023-01-10T13:21:46.728Z,23.20
2023-01-10T13:26:45.920Z,23.85
2023-01-10T13:31:45.091Z,23.87
2023-01-10T13:36:45.302Z,23.04
2023-01-10T13:41:44.481Z,22.86
2023-01-10T13:46:42.658Z,22.30
2023-01-10T13:51:42.148Z,22.55
2023-01-10T13:56:41.134Z,23.36
2023-01-10T14:01:41.559Z,27.78
2023-01-10T14:06:40.587Z,28.89
2023-01-10T14:11:38.755Z,28.56
2023-01-10T14:16:46.154Z,28.74
2023-01-10T14:21:37.095Z,29.00
2023-01-10T14:26:37.316Z,29.30
2023-01-10T14:31:35.546Z,29.55
2023-01-10T14:36:36.740Z,29.67
2023-01-10T14:41:34.910Z,29.73
2023-01-10T14:46:35.295Z,30.20
2023-01-10T14:51:34.370Z,30.37
2023-01-10T14:56:31.555Z,30.53
2023-01-10T15:01:34.027Z,30.79
2023-01-10T15:06:30.022Z,30.54
2023-01-10T15:11:29.715Z,29.87
2023-01-10T15:16:28.515Z,30.00
2023-01-10T15:21:27.715Z,30.07
2023-01-10T15:26:26.925Z,29.97
2023-01-10T15:31:27.148Z,30.10
2023-01-10T15:36:26.364Z,30.22
2023-01-10T15:41:24.579Z,30.51
2023-01-10T15:46:24.782Z,30.37
2023-01-10T15:51:23.922Z,30.38
2023-01-10T15:56:22.184Z,30.34
2023-01-10T16:01:22.448Z,30.67
2023-01-10T16:06:20.667Z,30.98
2023-01-10T16:11:20.833Z,31.12
2023-01-10T16:16:19.085Z,31.26
2023-01-10T16:21:17.290Z,31.31
2023-01-10T16:26:19.511Z,31.41
2023-01-10T16:31:16.699Z,31.35
2023-01-10T16:36:16.886Z,31.41
2023-01-10T16:41:15.053Z,31.68
2023-01-10T16:46:14.294Z,31.85
2023-01-10T16:51:13.489Z,32.15
2023-01-10T16:56:12.652Z,32.10
2023-01-10T17:01:11.950Z,31.39
2023-01-10T17:06:10.193Z,31.86
2023-01-10T17:11:11.366Z,32.13
2023-01-10T17:16:10.556Z,32.06
2023-01-10T17:21:09.764Z,32.40
2023-01-10T17:26:07.911Z,32.44
2023-01-10T17:31:08.104Z,31.95
2023-01-10T17:36:06.299Z,31.31
2023-01-10T17:41:05.506Z,31.48
2023-01-10T17:46:06.747Z,31.58
2023-01-10T17:51:04.954Z,31.76
2023-01-10T17:56:05.151Z,32.29
2023-01-10T18:01:02.434Z,32.35
2023-01-10T18:06:01.614Z,32.40
2023-01-10T18:11:00.894Z,32.55
2023-01-10T18:16:00.048Z,32.60
2023-01-10T18:20:59.238Z,32.43
2023-01-10T18:25:58.429Z,31.66
2023-01-10T18:30:57.669Z,31.68
2023-01-10T18:35:56.860Z,31.88
2023-01-10T18:40:56.296Z,31.91
2023-01-10T18:45:55.346Z,32.06
2023-01-10T18:50:55.556Z,32.48
2023-01-10T18:55:54.778Z,32.67
2023-01-10T19:00:52.996Z,32.84
2023-01-10T19:05:55.594Z,32.47
2023-01-10T19:11:13.822Z,32.35
2023-01-10T19:15:50.801Z,32.29
2023-01-10T19:20:51.407Z,32.21
2023-01-10T19:25:51.531Z,32.51
2023-01-10T19:31:02.538Z,32.51
2023-01-10T19:35:47.808Z,31.99
2023-01-10T19:40:48.001Z,31.50
2023-01-10T19:45:46.189Z,30.88
2023-01-10T19:50:47.372Z,30.43
2023-01-10T19:55:44.597Z,31.25
2023-01-10T20:00:43.807Z,31.50
2023-01-10T20:05:44.279Z,32.56
2023-01-10T20:10:42.661Z,32.66
2023-01-10T20:15:43.445Z,32.77
2023-01-10T20:20:41.596Z,32.82
2023-01-10T20:25:40.323Z,32.72
2023-01-10T20:30:44.054Z,29.09
2023-01-10T20:35:38.732Z,26.58
2023-01-10T20:40:37.772Z,26.76
2023-01-10T20:45:36.935Z,27.96
2023-01-10T20:50:37.248Z,26.69
2023-01-10T20:55:35.447Z,22.62
2023-01-10T21:00:35.628Z,21.56
2023-01-10T21:05:33.832Z,23.66
2023-01-10T21:10:34.034Z,22.95
2023-01-10T21:15:32.253Z,20.89
2023-01-10T21:20:32.448Z,22.42
2023-01-10T21:25:30.657Z,22.75
2023-01-10T21:30:29.829Z,20.58
2023-01-10T21:35:29.028Z,20.79
2023-01-10T21:40:30.345Z,25.69
2023-01-10T21:45:27.513Z,23.31
2023-01-10T21:50:27.726Z,21.84
2023-01-10T21:55:26.934Z,21.04
2023-01-10T22:00:25.364Z,20.87
2023-01-10T22:05:24.407Z,20.31
2023-01-10T22:10:25.588Z,19.78
2023-01-10T22:15:22.842Z,18.50
2023-01-10T22:20:22.057Z,19.61
2023-01-10T22:25:23.299Z,20.38
2023-01-10T22:30:19.535Z,22.72
2023-01-10T22:35:19.751Z,19.11
2023-01-10T22:40:19.213Z,20.02
2023-01-10T22:45:19.224Z,20.72
2023-01-10T22:50:19.442Z,18.63
2023-01-10T22:55:16.611Z,19.22
2023-01-10T23:00:15.909Z,19.92
2023-01-10T23:05:16.058Z,20.06
2023-01-10T23:10:29.223Z,18.90
2023-01-10T23:15:13.352Z,20.61
2023-01-10T23:20:12.533Z,18.27
2023-01-10T23:25:12.683Z,17.93
2023-01-10T23:30:11.436Z,18.52
2023-01-10T23:35:11.279Z,18.92
2023-01-10T23:40:10.891Z,18.88
2023-01-10T23:45:09.629Z,28.54
2023-01-10T23:50:08.763Z,29.14
2023-01-10T23:55:08.927Z,28.48
